createdAt,value
2022-12-25T00:04:55.548Z,100602.38
2022-12-25T00:09:57.564Z,100591.22
2022-12-25T00:14:58.202Z,100589.50
2022-12-25T00:19:58.859Z,100593.03
2022-12-25T00:25:00.867Z,100595.63
2022-12-25T00:30:01.782Z,100601.66
2022-12-25T00:35:02.440Z,100591.28
2022-12-25T00:40:04.815Z,100596.44
2022-12-25T00:45:06.760Z,100600.69
2022-12-25T00:50:08.658Z,100594.56
2022-12-25T00:55:11.144Z,100586.88
2022-12-25T01:00:12.930Z,100586.81
2022-12-25T01:05:13.588Z,100585.03
2022-12-25T01:10:24.642Z,100586.75
2022-12-25T01:15:25.638Z,100601.25
2022-12-25T01:20:26.358Z,100591.75
2022-12-25T01:25:28.367Z,100587.44
2022-12-25T01:30:29.073Z,100595.16
2022-12-25T01:35:30.196Z,100592.50
2022-12-25T01:40:34.869Z,100617.47
2022-12-25T01:45:39.527Z,100627.72
2022-12-25T01:50:44.635Z,100640.53
2022-12-25T01:55:50.764Z,100641.28
2022-12-25T02:00:53.001Z,100636.06
2022-12-25T02:05:54.431Z,100634.28
2022-12-25T02:10:56.602Z,100629.97
2022-12-25T02:16:05.835Z,100633.19
2022-12-25T02:21:36.317Z,100641.72
2022-12-25T02:26:59.313Z,100647.78
2022-12-25T02:32:06.696Z,100648.56
2022-12-25T02:37:11.806Z,100661.47
2022-12-25T02:42:17.662Z,100643.50
2022-12-25T02:47:50.159Z,100652.78
2022-12-25T02:53:11.316Z,100659.72
2022-12-25T02:58:33.115Z,100673.41
2022-12-25T03:03:58.820Z,100669.84
2022-12-25T03:09:21.706Z,100657.81
2022-12-25T03:14:39.975Z,100661.13
2022-12-25T03:19:59.883Z,100646.44
2022-12-25T03:25:18.781Z,100648.00
2022-12-25T03:30:37.762Z,100647.13
2022-12-25T03:35:48.211Z,100652.31
2022-12-25T03:41:18.835Z,100654.91
2022-12-25T03:46:39.609Z,100658.31
2022-12-25T03:52:02.554Z,100663.41
2022-12-25T03:57:20.934Z,100674.59
2022-12-25T04:02:39.411Z,100675.25
2022-12-25T04:07:59.053Z,100688.97
2022-12-25T04:13:17.286Z,100698.47
2022-12-25T04:18:35.429Z,100697.63
2022-12-25T04:23:55.309Z,100691.47
2022-12-25T04:29:13.877Z,100696.53
2022-12-25T04:34:32.272Z,100686.00
2022-12-25T04:39:34.281Z,100688.47
2022-12-25T04:44:35.574Z,100685.00
2022-12-25T04:49:36.224Z,100679.84
2022-12-25T04:54:39.958Z,100683.16
2022-12-25T04:59:40.604Z,100692.59
2022-12-25T05:04:41.260Z,100703.63
2022-12-25T05:09:43.296Z,100708.72
2022-12-25T05:14:43.943Z,100706.00
2022-12-25T05:19:44.633Z,100706.72
2022-12-25T05:24:46.619Z,100710.09
2022-12-25T05:29:47.277Z,100697.97
2022-12-25T05:34:47.936Z,100697.13
2022-12-25T05:39:49.930Z,100710.03
2022-12-25T05:44:50.644Z,100698.09
2022-12-25T05:49:51.278Z,100711.75
2022-12-25T05:54:53.259Z,100713.56
2022-12-25T05:59:53.889Z,100702.28
2022-12-25T06:04:55.265Z,100713.09
2022-12-25T06:09:57.280Z,100703.84
2022-12-25T06:14:57.973Z,100689.13
2022-12-25T06:19:58.630Z,100694.22
2022-12-25T06:25:00.778Z,100707.03
2022-12-25T06:30:01.485Z,100696.81
2022-12-25T06:35:02.136Z,100681.41
2022-12-25T06:40:04.490Z,100681.41
2022-12-25T06:45:05.549Z,100688.16
2022-12-25T06:50:07.729Z,100705.06
2022-12-25T06:55:10.791Z,100710.16
2022-12-25T07:00:12.777Z,100707.72
2022-12-25T07:05:13.437Z,100719.66
2022-12-25T07:10:19.067Z,100712.00
2022-12-25T07:15:19.736Z,100704.84
2022-12-25T07:20:20.460Z,100700.63
2022-12-25T07:25:22.539Z,100717.75
2022-12-25T07:30:23.189Z,100728.19
2022-12-25T07:35:23.887Z,100728.34
2022-12-25T07:40:25.885Z,100737.78
2022-12-25T07:45:26.623Z,100730.25
2022-12-25T07:50:27.296Z,100732.06
2022-12-25T07:55:29.292Z,100736.41
2022-12-25T08:00:32.742Z,100748.59
2022-12-25T08:05:33.729Z,100746.31
2022-12-25T08:10:35.725Z,100751.59
2022-12-25T08:15:36.389Z,100756.53
2022-12-25T08:20:37.334Z,100752.81
2022-12-25T08:25:39.393Z,100738.19
2022-12-25T08:30:40.238Z,100743.41
2022-12-25T08:35:40.936Z,100742.78
2022-12-25T08:40:43.008Z,100745.44
2022-12-25T08:45:43.738Z,100737.09
2022-12-25T08:50:46.356Z,100745.97
2022-12-25T08:55:48.550Z,100723.78
2022-12-25T09:00:50.360Z,100719.94
2022-12-25T09:05:51.454Z,100709.84
2022-12-25T09:10:53.528Z,100705.72
2022-12-25T09:15:54.297Z,100710.28
2022-12-25T09:21:01.960Z,100694.09
2022-12-25T09:26:06.520Z,100692.34
2022-12-25T09:31:07.512Z,100671.94
2022-12-25T09:36:09.929Z,100656.63
2022-12-25T09:41:18.175Z,100664.50
2022-12-25T09:46:22.947Z,100642.16
2022-12-25T09:51:25.312Z,100635.25
2022-12-25T09:56:27.572Z,100633.69
2022-12-25T10:01:38.651Z,100627.69
2022-12-25T10:06:49.356Z,100617.47
2022-12-25T10:12:02.922Z,100625.25
2022-12-25T10:17:18.275Z,100633.91
2022-12-25T10:22:27.956Z,100626.13
2022-12-25T10:27:33.571Z,100603.72
2022-12-25T10:32:34.995Z,100613.22
2022-12-25T10:37:35.683Z,100593.41
2022-12-25T10:42:44.791Z,100587.34
2022-12-25T10:47:45.587Z,100591.69
2022-12-25T10:53:00.421Z,100593.38
2022-12-25T10:58:03.121Z,100591.66
2022-12-25T11:03:04.538Z,100581.28
2022-12-25T11:08:19.876Z,100574.28
2022-12-25T11:13:25.176Z,100557.72
2022-12-25T11:18:27.567Z,100573.16
2022-12-25T11:23:30.786Z,100583.31
2022-12-25T11:28:35.503Z,100575.34
2022-12-25T11:33:39.831Z,100568.28
2022-12-25T11:38:40.539Z,100556.16
2022-12-25T11:43:48.589Z,100515.47
2022-12-25T11:48:56.221Z,100500.75
2022-12-25T11:54:01.677Z,100504.19
2022-12-25T11:59:14.955Z,100486.00
2022-12-25T12:04:29.086Z,100465.16
2022-12-25T12:09:41.773Z,100449.47
2022-12-25T12:14:55.592Z,100444.31
2022-12-25T12:19:56.273Z,100443.50
2022-12-25T12:25:02.179Z,100426.09
2022-12-25T12:30:05.999Z,100433.75
2022-12-25T12:35:16.254Z,100437.13
2022-12-25T12:40:28.205Z,100437.97
2022-12-25T12:45:33.720Z,100412.75
2022-12-25T12:50:37.444Z,100404.94
2022-12-25T12:55:38.163Z,100413.69
2022-12-25T13:00:50.073Z,100394.66
2022-12-25T13:05:57.094Z,100383.53
2022-12-25T13:11:08.855Z,100355.84
2022-12-25T13:16:18.089Z,100354.28
2022-12-25T13:21:23.106Z,100377.88
2022-12-25T13:26:23.987Z,100391.81
2022-12-25T13:31:27.743Z,100406.50
2022-12-25T13:36:31.059Z,100405.66
2022-12-25T13:41:55.293Z,100410.03
2022-12-25T13:46:57.530Z,100410.22
2022-12-25T13:52:12.103Z,100411.06
2022-12-25T13:57:13.957Z,100393.78
2022-12-25T14:02:20.138Z,100383.50
2022-12-25T14:07:24.106Z,100376.63
2022-12-25T14:12:25.842Z,100403.47
2022-12-25T14:17:28.204Z,100398.34
2022-12-25T14:22:31.197Z,100379.25
2022-12-25T14:27:31.954Z,100380.19
2022-12-25T14:32:46.614Z,100363.75
2022-12-25T14:37:48.703Z,100363.81
2022-12-25T14:42:56.744Z,100364.69
2022-12-25T14:48:00.962Z,100351.84
2022-12-25T14:53:01.915Z,100344.09
2022-12-25T14:58:05.578Z,100328.56
2022-12-25T15:03:18.214Z,100331.19
2022-12-25T15:08:24.690Z,100325.91
2022-12-25T15:13:26.914Z,100331.03
2022-12-25T15:18:33.063Z,100322.38
2022-12-25T15:23:33.791Z,100296.31
2022-12-25T15:28:34.455Z,100290.28
2022-12-25T15:33:40.689Z,100279.84
2022-12-25T15:38:44.819Z,100285.00
2022-12-25T15:43:45.508Z,100287.69
2022-12-25T15:48:47.529Z,100279.78
2022-12-25T15:53:48.239Z,100271.97
2022-12-25T15:58:49.872Z,100276.34
2022-12-25T16:03:52.078Z,100288.38
2022-12-25T16:08:52.776Z,100286.63
2022-12-25T16:13:53.474Z,100276.25
2022-12-25T16:18:55.509Z,100247.59
2022-12-25T16:23:56.208Z,100239.81
2022-12-25T16:28:57.187Z,100254.41
2022-12-25T16:34:01.306Z,100250.09
2022-12-25T16:39:02.408Z,100243.22
2022-12-25T16:44:09.219Z,100256.19
2022-12-25T16:49:11.635Z,100268.31
2022-12-25T16:54:12.317Z,100276.97
2022-12-25T16:59:13.117Z,100263.09
2022-12-25T17:04:15.133Z,100226.81
2022-12-25T17:09:15.810Z,100218.38
2022-12-25T17:14:16.497Z,100213.34
2022-12-25T17:19:20.786Z,100178.03
2022-12-25T17:24:21.806Z,100181.47
2022-12-25T17:29:23.098Z,100150.34
2022-12-25T17:34:25.308Z,100145.03
2022-12-25T17:39:26.284Z,100145.91
2022-12-25T17:44:27.333Z,100132.94
2022-12-25T17:49:29.376Z,100125.13
2022-12-25T17:54:30.094Z,100108.56
2022-12-25T17:59:30.759Z,100105.09
2022-12-25T18:04:33.180Z,100109.34
2022-12-25T18:09:33.821Z,100108.50
2022-12-25T18:14:34.488Z,100108.38
2022-12-25T18:19:36.475Z,100104.13
2022-12-25T18:24:37.146Z,100092.91
2022-12-25T18:29:37.858Z,100089.34
2022-12-25T18:34:40.003Z,100084.97
2022-12-25T18:39:40.738Z,100079.72
2022-12-25T18:44:41.446Z,100073.63
2022-12-25T18:49:43.600Z,100072.03
2022-12-25T18:54:44.484Z,100070.50
2022-12-25T18:59:46.941Z,100088.00
2022-12-25T19:04:48.980Z,100081.16
2022-12-25T19:09:49.995Z,100077.59
2022-12-25T19:14:51.322Z,100094.06
2022-12-25T19:19:54.974Z,100081.81
2022-12-25T19:24:55.665Z,100082.66
2022-12-25T19:29:56.419Z,100072.28
2022-12-25T19:34:58.451Z,100064.63
2022-12-25T19:39:59.154Z,100067.97
2022-12-25T19:44:59.825Z,100073.16
2022-12-25T19:50:03.331Z,100073.88
2022-12-25T19:55:04.853Z,100068.59
2022-12-25T20:00:06.642Z,100070.34
2022-12-25T20:05:15.649Z,100063.47
2022-12-25T20:10:16.661Z,100057.41
2022-12-25T20:15:17.512Z,100059.19
2022-12-25T20:20:19.716Z,100046.88
2022-12-25T20:25:20.404Z,100037.25
2022-12-25T20:30:21.215Z,100039.78
2022-12-25T20:35:23.199Z,100030.25
2022-12-25T20:40:23.854Z,100035.31
2022-12-25T20:45:24.518Z,100038.72
2022-12-25T20:50:27.029Z,100033.34
2022-12-25T20:55:27.737Z,100037.53
2022-12-25T21:00:28.735Z,100026.94
2022-12-25T21:05:31.819Z,100024.25
2022-12-25T21:10:32.583Z,100012.28
2022-12-25T21:15:33.267Z,100023.50
2022-12-25T21:20:35.291Z,100010.66
2022-12-25T21:25:36.000Z,100017.53
2022-12-25T21:30:36.957Z,100006.44
2022-12-25T21:35:39.677Z,100017.66
2022-12-25T21:40:40.984Z,100009.81
2022-12-25T21:45:41.771Z,100008.03
2022-12-25T21:51:01.564Z,99994.28
2022-12-25T21:56:02.840Z,100015.97
2022-12-25T22:01:04.471Z,100022.06
2022-12-25T22:06:24.623Z,100014.25
2022-12-25T22:11:42.945Z,100014.91
2022-12-25T22:17:01.134Z,100009.91
2022-12-25T22:22:03.222Z,100021.19
2022-12-25T22:27:03.977Z,100016.06
2022-12-25T22:32:05.191Z,100006.53
2022-12-25T22:37:08.464Z,99986.44
2022-12-25T22:42:09.187Z,100002.03
2022-12-25T22:47:10.155Z,100001.09
2022-12-25T22:52:12.203Z,100001.00
2022-12-25T22:57:12.837Z,100004.50
2022-12-25T23:02:13.689Z,100002.72
2022-12-25T23:07:15.799Z,100004.41
2022-12-25T23:12:30.570Z,100008.72
2022-12-25T23:17:48.695Z,99997.72
2022-12-25T23:23:08.195Z,99986.38
2022-12-25T23:28:08.892Z,100001.91
2022-12-25T23:33:12.535Z,100016.72
2022-12-25T23:38:14.582Z,100013.16
2022-12-25T23:43:15.288Z,99999.09
2022-12-25T23:48:16.002Z,100006.72
2022-12-25T23:53:17.982Z,100016.31
2022-12-25T23:58:18.666Z,99996.31
